Kimberly Turecamo — WDC6838 — position and weather

sailwx.info

Track history (hours):
 
Tides and Currents Weather Stations Pressure Air Temp Water Temp Dewpoint Dewpoint Depression Visibility Wind Speed Wind Dir Waves Ship Positions

Kimberly Turecamo

Owner: Moran Towing Corporation, New Canaan, CT. More information available from US FCC via Universal Licensing System and Coast Guard Vessel Documentation Center.

Last reported at 2015-May-28 12:27 UTC. Time now 2015-May-28 16:12 UTC.
Position N 39°42' W 075°30'.

Length 33 m; draft 5 m.

Type: Tug. MMSI: 367061980.

Date/timePositionNaut miles runAvg speedWind from/ knotsBaromVisibWave heightAir tempDewpointWater temp
2015-May-28 12:27N 39°42' W 075°30'0 0.0
2015-May-28 11:21N 39°42' W 075°30'0 0.0
2015-May-28 10:21N 39°42' W 075°30'0 0.1
2015-May-28 09:33N 39°42' W 075°30'0 0.1
2015-May-28 08:33N 39°42' W 075°31'0 0.1
2015-May-28 07:33N 39°42' W 075°31'0 0.0
2015-May-28 06:33N 39°42' W 075°31'0 0.0
2015-May-28 05:33N 39°42' W 075°31'0 0.0
2015-May-28 04:33N 39°42' W 075°31'0 0.0
2015-May-28 03:33N 39°42' W 075°31'0 0.0
2015-May-28 02:33N 39°42' W 075°31'0 0.2
2015-May-28 01:33N 39°42' W 075°30'0 0.1
2015-May-28 00:33N 39°42' W 075°30'0 0.0
2015-May-27 23:33N 39°42' W 075°30'0 0.0
2015-May-27 22:33N 39°42' W 075°30'0 0.0
2015-May-27 21:33N 39°42' W 075°30'0 0.0
2015-May-27 20:33N 39°42' W 075°30'0 0.1
2015-May-27 19:33N 39°42' W 075°31'0 0.1
2015-May-27 18:32N 39°42' W 075°31'0 0.0
2015-May-27 17:32N 39°42' W 075°31'0 0.0
2015-May-27 16:32N 39°42' W 075°31'0 0.0
2015-May-27 15:32N 39°42' W 075°31'0 0.0
2015-May-27 14:32N 39°42' W 075°31'0 0.2
2015-May-27 13:32N 39°42' W 075°30'0 0.0
2015-May-27 12:32N 39°42' W 075°30'0 0.0
2015-May-27 11:32N 39°42' W 075°30'0 0.0
2015-May-27 10:32N 39°42' W 075°30'0 0.0
2015-May-27 09:32N 39°42' W 075°30'0 0.0
2015-May-27 08:32N 39°42' W 075°30'0 0.1
2015-May-27 07:29N 39°42' W 075°31'0 0.2
2015-May-27 06:32N 39°42' W 075°31'0 0.0
2015-May-27 05:32N 39°42' W 075°31'0 0.0
2015-May-27 04:32N 39°42' W 075°31'0 0.0
2015-May-27 03:29N 39°42' W 075°31'0 0.0
2015-May-27 02:32N 39°42' W 075°31'0 0.1
2015-May-27 01:29N 39°42' W 075°31'0 0.1
2015-May-27 00:32N 39°42' W 075°30'0 0.0
2015-May-26 23:32N 39°42' W 075°30'0 0.0
2015-May-26 22:32N 39°42' W 075°30'0 0.0
2015-May-26 21:32N 39°42' W 075°30'0 0.0
2015-May-26 19:17N 39°42' W 075°30'0 0.0
2015-May-26 12:26N 39°42' W 075°30'0 0.0
2015-May-26 09:32N 39°42' W 075°30'0 0.0
2015-May-26 08:32N 39°42' W 075°30'0 0.0
2015-May-26 07:31N 39°42' W 075°30'0 0.1
2015-May-26 06:25N 39°42' W 075°31'0 0.0
2015-May-25 21:22N 39°42' W 075°30'0 0.0
2015-May-25 20:31N 39°42' W 075°30'0 0.0
2015-May-25 19:19N 39°42' W 075°30'0 0.0
2015-May-25 18:19N 39°42' W 075°30'0 0.0
2015-May-25 11:31N 39°42' W 075°31'10 0.4
2015-May-24 09:29N 39°33' W 075°33'0 0.0
2015-May-24 07:27N 39°33' W 075°33'0 0.0
2015-May-24 06:32N 39°33' W 075°33'0 0.0
2015-May-24 05:33N 39°33' W 075°33'0 0.0
2015-May-24 04:29N 39°33' W 075°33'0 0.1
2015-May-24 03:23N 39°32' W 075°33'0 0.0
2015-May-24 02:11N 39°32' W 075°33'8 0.6
2015-May-23 12:29N 39°40' W 075°32'3 0.4
2015-May-23 05:30N 39°43' W 075°31'0 0.0
2015-May-23 04:32N 39°43' W 075°31'9 0.3
2015-May-21 21:12N 39°35' W 075°36'0 0.0
2015-May-21 20:33N 39°35' W 075°36'0 0.0
2015-May-21 19:33N 39°35' W 075°36'0 0.0
2015-May-21 18:33N 39°35' W 075°36'0 0.0
2015-May-21 17:34N 39°35' W 075°36'0 0.0
2015-May-21 16:33N 39°35' W 075°36'0 0.0
2015-May-21 15:34N 39°35' W 075°36'0 0.0
2015-May-21 14:33N 39°35' W 075°36'0 0.0
2015-May-21 13:33N 39°35' W 075°36'0 0.0
2015-May-21 12:33N 39°35' W 075°36'0 0.0
2015-May-21 11:33N 39°35' W 075°36'0 0.0
2015-May-21 10:33N 39°35' W 075°36'0 0.4
2015-May-21 09:33N 39°35' W 075°35'5 4.8
2015-May-21 08:34N 39°30' W 075°33'1 1.0
2015-May-21 07:33N 39°30' W 075°33'0 0.1
2015-May-21 06:33N 39°30' W 075°33'0 0.0
2015-May-21 05:33N 39°30' W 075°33'0 0.0
2015-May-21 04:34N 39°30' W 075°33'0 0.0
2015-May-21 03:34N 39°30' W 075°33'0 0.0
2015-May-21 02:33N 39°30' W 075°33'0 0.2
2015-May-21 01:33N 39°29' W 075°33'0 0.1
2015-May-21 00:33N 39°29' W 075°33'4 3.9
2015-May-20 23:33N 39°26' W 075°32'3 2.7
2015-May-20 22:34N 39°24' W 075°29'4 4.1
2015-May-20 21:34N 39°21' W 075°26'5 5.1
2015-May-20 20:34N 39°17' W 075°21'5 5.4
2015-May-20 19:33N 39°13' W 075°17'7 5.9
2015-May-20 18:23N 39°07' W 075°13'5 5.9
2015-May-20 17:34N 39°02' W 075°10'6 6.4
2015-May-20 16:33N 38°57' W 075°05'6 6.5
2015-May-20 15:33N 38°51' W 075°03'7 7.5
2015-May-20 14:34N 38°44' W 074°59'7 7.2
2015-May-20 13:33N 38°37' W 074°58'222 6.7
2015-May-19 04:23N 34°57' W 075°34'7 7.9
2015-May-19 03:34N 34°53' W 075°40'8 7.9
2015-May-19 02:32N 34°48' W 075°48'10 7.8
2015-May-19 01:12N 34°41' W 075°58'5 7.9
2015-May-19 00:33N 34°38' W 076°03'8 7.8
2015-May-18 23:34N 34°33' W 076°10'8 7.5
2015-May-18 22:33N 34°28' W 076°16'7 7.1
2015-May-18 21:33N 34°24' W 076°23'9 7.1
2015-May-18 20:20N 34°19' W 076°32'  
Track history (hours):
 
Tides and Currents Weather Stations Pressure Air Temp Water Temp Dewpoint Dewpoint Depression Visibility Wind Speed Wind Dir Waves Ship Positions

Kimberly Turecamo

Owner: Moran Towing Corporation, New Canaan, CT. More information available from US FCC via Universal Licensing System and Coast Guard Vessel Documentation Center.

Last reported at 2015-May-28 12:27 UTC. Time now 2015-May-28 16:12 UTC.
Position N 39°42' W 075°30'.

Length 33 m; draft 5 m.

Type: Tug. MMSI: 367061980.

Date/timePositionNaut miles runAvg speedWind from/ knotsBaromVisibWave heightAir tempDewpointWater temp
2015-May-28 12:27N 39°42' W 075°30'0 0.0
2015-May-28 11:21N 39°42' W 075°30'0 0.0
2015-May-28 10:21N 39°42' W 075°30'0 0.1
2015-May-28 09:33N 39°42' W 075°30'0 0.1
2015-May-28 08:33N 39°42' W 075°31'0 0.1
2015-May-28 07:33N 39°42' W 075°31'0 0.0
2015-May-28 06:33N 39°42' W 075°31'0 0.0
2015-May-28 05:33N 39°42' W 075°31'0 0.0
2015-May-28 04:33N 39°42' W 075°31'0 0.0
2015-May-28 03:33N 39°42' W 075°31'0 0.0
2015-May-28 02:33N 39°42' W 075°31'0 0.2
2015-May-28 01:33N 39°42' W 075°30'0 0.1
2015-May-28 00:33N 39°42' W 075°30'0 0.0
2015-May-27 23:33N 39°42' W 075°30'0 0.0
2015-May-27 22:33N 39°42' W 075°30'0 0.0
2015-May-27 21:33N 39°42' W 075°30'0 0.0
2015-May-27 20:33N 39°42' W 075°30'0 0.1
2015-May-27 19:33N 39°42' W 075°31'0 0.1
2015-May-27 18:32N 39°42' W 075°31'0 0.0
2015-May-27 17:32N 39°42' W 075°31'0 0.0
2015-May-27 16:32N 39°42' W 075°31'0 0.0
2015-May-27 15:32N 39°42' W 075°31'0 0.0
2015-May-27 14:32N 39°42' W 075°31'0 0.2
2015-May-27 13:32N 39°42' W 075°30'0 0.0
2015-May-27 12:32N 39°42' W 075°30'0 0.0
2015-May-27 11:32N 39°42' W 075°30'0 0.0
2015-May-27 10:32N 39°42' W 075°30'0 0.0
2015-May-27 09:32N 39°42' W 075°30'0 0.0
2015-May-27 08:32N 39°42' W 075°30'0 0.1
2015-May-27 07:29N 39°42' W 075°31'0 0.2
2015-May-27 06:32N 39°42' W 075°31'0 0.0
2015-May-27 05:32N 39°42' W 075°31'0 0.0
2015-May-27 04:32N 39°42' W 075°31'0 0.0
2015-May-27 03:29N 39°42' W 075°31'0 0.0
2015-May-27 02:32N 39°42' W 075°31'0 0.1
2015-May-27 01:29N 39°42' W 075°31'0 0.1
2015-May-27 00:32N 39°42' W 075°30'0 0.0
2015-May-26 23:32N 39°42' W 075°30'0 0.0
2015-May-26 22:32N 39°42' W 075°30'0 0.0
2015-May-26 21:32N 39°42' W 075°30'0 0.0
2015-May-26 19:17N 39°42' W 075°30'0 0.0
2015-May-26 12:26N 39°42' W 075°30'0 0.0
2015-May-26 09:32N 39°42' W 075°30'0 0.0
2015-May-26 08:32N 39°42' W 075°30'0 0.0
2015-May-26 07:31N 39°42' W 075°30'0 0.1
2015-May-26 06:25N 39°42' W 075°31'0 0.0
2015-May-25 21:22N 39°42' W 075°30'0 0.0
2015-May-25 20:31N 39°42' W 075°30'0 0.0
2015-May-25 19:19N 39°42' W 075°30'0 0.0
2015-May-25 18:19N 39°42' W 075°30'0 0.0
2015-May-25 11:31N 39°42' W 075°31'10 0.4
2015-May-24 09:29N 39°33' W 075°33'0 0.0
2015-May-24 07:27N 39°33' W 075°33'0 0.0
2015-May-24 06:32N 39°33' W 075°33'0 0.0
2015-May-24 05:33N 39°33' W 075°33'0 0.0
2015-May-24 04:29N 39°33' W 075°33'0 0.1
2015-May-24 03:23N 39°32' W 075°33'0 0.0
2015-May-24 02:11N 39°32' W 075°33'8 0.6
2015-May-23 12:29N 39°40' W 075°32'3 0.4
2015-May-23 05:30N 39°43' W 075°31'0 0.0
2015-May-23 04:32N 39°43' W 075°31'9 0.3
2015-May-21 21:12N 39°35' W 075°36'0 0.0
2015-May-21 20:33N 39°35' W 075°36'0 0.0
2015-May-21 19:33N 39°35' W 075°36'0 0.0
2015-May-21 18:33N 39°35' W 075°36'0 0.0
2015-May-21 17:34N 39°35' W 075°36'0 0.0
2015-May-21 16:33N 39°35' W 075°36'0 0.0
2015-May-21 15:34N 39°35' W 075°36'0 0.0
2015-May-21 14:33N 39°35' W 075°36'0 0.0
2015-May-21 13:33N 39°35' W 075°36'0 0.0
2015-May-21 12:33N 39°35' W 075°36'0 0.0
2015-May-21 11:33N 39°35' W 075°36'0 0.0
2015-May-21 10:33N 39°35' W 075°36'0 0.4
2015-May-21 09:33N 39°35' W 075°35'5 4.8
2015-May-21 08:34N 39°30' W 075°33'1 1.0
2015-May-21 07:33N 39°30' W 075°33'0 0.1
2015-May-21 06:33N 39°30' W 075°33'0 0.0
2015-May-21 05:33N 39°30' W 075°33'0 0.0
2015-May-21 04:34N 39°30' W 075°33'0 0.0
2015-May-21 03:34N 39°30' W 075°33'0 0.0
2015-May-21 02:33N 39°30' W 075°33'0 0.2
2015-May-21 01:33N 39°29' W 075°33'0 0.1
2015-May-21 00:33N 39°29' W 075°33'4 3.9
2015-May-20 23:33N 39°26' W 075°32'3 2.7
2015-May-20 22:34N 39°24' W 075°29'4 4.1
2015-May-20 21:34N 39°21' W 075°26'5 5.1
2015-May-20 20:34N 39°17' W 075°21'5 5.4
2015-May-20 19:33N 39°13' W 075°17'7 5.9
2015-May-20 18:23N 39°07' W 075°13'5 5.9
2015-May-20 17:34N 39°02' W 075°10'6 6.4
2015-May-20 16:33N 38°57' W 075°05'6 6.5
2015-May-20 15:33N 38°51' W 075°03'7 7.5
2015-May-20 14:34N 38°44' W 074°59'7 7.2
2015-May-20 13:33N 38°37' W 074°58'222 6.7
2015-May-19 04:23N 34°57' W 075°34'7 7.9
2015-May-19 03:34N 34°53' W 075°40'8 7.9
2015-May-19 02:32N 34°48' W 075°48'10 7.8
2015-May-19 01:12N 34°41' W 075°58'5 7.9
2015-May-19 00:33N 34°38' W 076°03'8 7.8
2015-May-18 23:34N 34°33' W 076°10'8 7.5
2015-May-18 22:33N 34°28' W 076°16'7 7.1
2015-May-18 21:33N 34°24' W 076°23'9 7.1
2015-May-18 20:20N 34°19' W 076°32'  

Dump ship's entire track history